createdAt,value
2023-02-26T00:02:13.608Z,0.50
2023-02-26T00:05:21.653Z,0.60
2023-02-26T00:08:31.596Z,0.53
2023-02-26T00:11:40.212Z,0.57
2023-02-26T00:14:49.836Z,0.70
2023-02-26T00:18:07.013Z,0.80
2023-02-26T00:21:18.612Z,0.83
2023-02-26T00:24:28.029Z,0.80
2023-02-26T00:27:36.717Z,1.00
2023-02-26T00:30:45.461Z,0.70
2023-02-26T00:33:56.131Z,0.90
2023-02-26T00:37:24.151Z,0.90
2023-02-26T00:40:44.155Z,1.10
2023-02-26T00:43:53.052Z,1.60
2023-02-26T00:47:11.120Z,1.30
2023-02-26T00:50:23.192Z,1.00
2023-02-26T00:53:42.093Z,1.70
2023-02-26T00:56:53.743Z,1.27
2023-02-26T01:00:02.185Z,1.83
2023-02-26T01:03:12.089Z,1.37
2023-02-26T01:06:23.613Z,1.67
2023-02-26T01:09:34.857Z,1.50
2023-02-26T01:12:45.356Z,1.57
2023-02-26T01:16:08.946Z,1.33
2023-02-26T01:19:30.731Z,0.97
2023-02-26T01:22:47.399Z,1.20
2023-02-26T01:26:01.576Z,1.10
2023-02-26T01:29:11.937Z,1.43
2023-02-26T01:32:28.746Z,1.37
2023-02-26T01:35:46.958Z,1.63
2023-02-26T01:39:10.537Z,1.20
2023-02-26T01:42:24.510Z,1.60
2023-02-26T01:45:44.909Z,1.03
2023-02-26T01:48:57.301Z,1.13
2023-02-26T01:52:08.358Z,1.00
2023-02-26T01:55:19.102Z,1.17
2023-02-26T01:58:35.131Z,0.90
2023-02-26T02:01:45.353Z,1.00
2023-02-26T02:04:54.583Z,1.07
2023-02-26T02:08:03.380Z,1.03
2023-02-26T02:11:14.699Z,0.90
2023-02-26T02:14:32.534Z,0.83
2023-02-26T02:17:52.904Z,0.93
2023-02-26T02:21:46.678Z,0.90
2023-02-26T02:25:16.704Z,0.73
2023-02-26T02:28:46.493Z,0.90
2023-02-26T02:32:01.600Z,0.87
2023-02-26T02:35:19.238Z,0.87
2023-02-26T02:38:36.554Z,0.90
2023-02-26T02:41:53.613Z,0.90
2023-02-26T02:45:10.816Z,1.10
2023-02-26T02:48:29.256Z,0.97
2023-02-26T02:51:42.411Z,0.73
2023-02-26T02:54:59.923Z,1.00
2023-02-26T02:58:14.823Z,0.70
2023-02-26T03:01:27.333Z,0.90
2023-02-26T03:04:38.114Z,1.00
2023-02-26T03:07:55.246Z,0.73
2023-02-26T03:11:03.647Z,0.80
2023-02-26T03:14:16.322Z,1.07
2023-02-26T03:17:34.993Z,0.60
2023-02-26T03:20:57.884Z,0.90
2023-02-26T03:24:17.223Z,0.80
2023-02-26T03:27:34.353Z,0.50
2023-02-26T03:30:49.479Z,0.67
2023-02-26T03:34:04.240Z,0.60
2023-02-26T03:37:22.770Z,0.47
2023-02-26T03:40:38.580Z,0.50
2023-02-26T03:43:56.951Z,0.70
2023-02-26T03:47:11.961Z,0.57
2023-02-26T03:50:29.010Z,0.80
2023-02-26T03:54:09.079Z,0.93
2023-02-26T03:57:21.405Z,0.63
2023-02-26T04:00:57.265Z,0.73
2023-02-26T04:04:13.797Z,0.97
2023-02-26T04:07:23.347Z,0.77
2023-02-26T04:10:42.657Z,0.40
2023-02-26T04:13:50.911Z,1.03
2023-02-26T04:17:00.259Z,0.40
2023-02-26T04:20:11.351Z,0.50
2023-02-26T04:23:20.381Z,0.30
2023-02-26T04:26:30.201Z,0.80
2023-02-26T04:29:38.621Z,0.50
2023-02-26T04:32:47.648Z,0.60
2023-02-26T04:35:56.980Z,0.63
2023-02-26T04:39:07.243Z,0.60
2023-02-26T04:42:17.500Z,0.60
2023-02-26T04:45:25.636Z,0.60
2023-02-26T04:48:34.720Z,0.87
2023-02-26T04:51:42.902Z,0.53
2023-02-26T04:54:53.336Z,0.60
2023-02-26T04:58:03.579Z,0.70
2023-02-26T05:01:13.626Z,0.60
2023-02-26T05:04:21.983Z,0.60
2023-02-26T05:07:35.260Z,0.50
2023-02-26T05:10:43.465Z,0.57
2023-02-26T05:13:53.270Z,0.93
2023-02-26T05:17:01.459Z,0.80
2023-02-26T05:20:12.942Z,0.80
2023-02-26T05:23:21.300Z,0.97
2023-02-26T05:26:29.478Z,0.50
2023-02-26T05:29:41.124Z,0.50
2023-02-26T05:32:51.204Z,0.80
2023-02-26T05:35:59.316Z,0.70
2023-02-26T05:39:07.760Z,0.90
2023-02-26T05:42:15.958Z,0.70
2023-02-26T05:45:25.444Z,0.50
2023-02-26T05:48:33.577Z,0.70
2023-02-26T05:51:42.813Z,0.40
2023-02-26T05:54:51.072Z,0.63
2023-02-26T05:57:59.281Z,0.63
2023-02-26T06:01:08.712Z,0.80
2023-02-26T06:04:16.891Z,0.67
2023-02-26T06:07:25.481Z,0.60
2023-02-26T06:10:34.041Z,0.63
2023-02-26T06:13:42.610Z,0.63
2023-02-26T06:16:52.055Z,0.67
2023-02-26T06:20:00.201Z,0.40
2023-02-26T06:23:08.313Z,0.70
2023-02-26T06:26:16.592Z,0.80
2023-02-26T06:29:24.767Z,0.63
2023-02-26T06:32:34.366Z,1.00
2023-02-26T06:35:42.771Z,0.80
2023-02-26T06:38:50.887Z,0.90
2023-02-26T06:41:59.843Z,0.83
2023-02-26T06:45:09.330Z,0.80
2023-02-26T06:48:18.784Z,0.93
2023-02-26T06:51:27.153Z,0.90
2023-02-26T06:54:35.300Z,0.93
2023-02-26T06:57:43.561Z,1.00
2023-02-26T07:00:52.101Z,0.73
2023-02-26T07:04:01.645Z,0.73
2023-02-26T07:07:09.869Z,0.50
2023-02-26T07:10:18.713Z,1.07
2023-02-26T07:13:26.792Z,1.00
2023-02-26T07:16:35.078Z,0.80
2023-02-26T07:19:44.547Z,0.93
2023-02-26T07:22:52.666Z,0.77
2023-02-26T07:26:01.052Z,0.70
2023-02-26T07:29:09.465Z,0.90
2023-02-26T07:32:17.776Z,0.90
2023-02-26T07:35:27.436Z,0.80
2023-02-26T07:38:35.545Z,1.20
2023-02-26T07:41:43.605Z,2.77
2023-02-26T07:44:56.138Z,0.90
2023-02-26T07:48:04.519Z,1.60
2023-02-26T07:51:14.028Z,3.97
2023-02-26T07:54:22.552Z,1.27
2023-02-26T07:57:30.685Z,0.87
2023-02-26T08:00:38.893Z,0.67
2023-02-26T08:03:47.069Z,0.90
2023-02-26T08:06:57.319Z,0.97
2023-02-26T08:10:06.953Z,1.15
2023-02-26T08:13:15.169Z,1.10
2023-02-26T08:16:23.860Z,0.80
2023-02-26T08:19:32.547Z,1.00
2023-02-26T08:22:42.309Z,0.83
2023-02-26T08:25:51.042Z,1.00
2023-02-26T08:28:59.173Z,0.80
2023-02-26T08:32:07.350Z,1.07
2023-02-26T08:35:15.498Z,0.80
2023-02-26T08:38:24.966Z,0.90
2023-02-26T08:41:33.398Z,1.20
2023-02-26T08:44:41.556Z,1.00
2023-02-26T08:47:56.673Z,0.80
2023-02-26T08:51:06.173Z,1.00
2023-02-26T08:54:15.930Z,1.03
2023-02-26T08:57:24.028Z,1.00
2023-02-26T09:00:32.754Z,1.10
2023-02-26T09:03:41.199Z,1.03
2023-02-26T09:06:49.463Z,1.10
2023-02-26T09:09:59.055Z,1.47
2023-02-26T09:13:07.150Z,1.20
2023-02-26T09:16:15.336Z,1.00
2023-02-26T09:19:23.963Z,1.00
2023-02-26T09:22:35.183Z,1.47
2023-02-26T09:25:44.747Z,1.50
2023-02-26T09:28:53.000Z,1.83
2023-02-26T09:32:01.908Z,1.50
2023-02-26T09:35:11.543Z,1.23
2023-02-26T09:38:20.372Z,1.30
2023-02-26T09:41:35.210Z,1.20
2023-02-26T09:44:43.894Z,1.10
2023-02-26T09:47:55.665Z,1.00
2023-02-26T09:51:04.895Z,1.50
2023-02-26T09:54:22.525Z,1.13
2023-02-26T09:57:36.892Z,1.40
2023-02-26T10:00:56.568Z,1.40
2023-02-26T10:04:13.070Z,1.27
2023-02-26T10:07:40.015Z,1.10
2023-02-26T10:10:57.698Z,1.67
2023-02-26T10:14:17.213Z,1.30
2023-02-26T10:17:36.714Z,1.00
2023-02-26T10:20:57.369Z,1.30
2023-02-26T10:24:14.826Z,1.03
2023-02-26T10:27:39.813Z,0.90
2023-02-26T10:31:01.587Z,1.20
2023-02-26T10:34:24.252Z,2.83
2023-02-26T10:37:47.585Z,1.37
2023-02-26T10:41:03.812Z,1.03
2023-02-26T10:44:23.502Z,0.90
2023-02-26T10:47:48.066Z,1.17
2023-02-26T10:51:00.420Z,1.33
2023-02-26T10:54:20.973Z,1.00
2023-02-26T10:57:35.679Z,1.23
2023-02-26T11:00:50.069Z,1.20
2023-02-26T11:04:06.431Z,2.37
2023-02-26T11:07:15.771Z,1.30
2023-02-26T11:10:28.155Z,1.30
2023-02-26T11:13:39.943Z,1.20
2023-02-26T11:16:53.848Z,1.40
2023-02-26T11:20:16.518Z,1.27
2023-02-26T11:23:32.209Z,1.17
2023-02-26T11:26:45.819Z,1.50
2023-02-26T11:29:58.170Z,1.60
2023-02-26T11:33:19.684Z,1.80
2023-02-26T11:36:34.191Z,1.63
2023-02-26T11:39:42.554Z,1.83
2023-02-26T11:42:57.165Z,1.50
2023-02-26T11:46:06.789Z,1.23
2023-02-26T11:49:19.889Z,1.30
2023-02-26T11:52:35.305Z,1.30
2023-02-26T11:55:48.186Z,1.50
2023-02-26T11:58:59.173Z,0.90
2023-02-26T12:02:14.543Z,0.97
2023-02-26T12:05:22.929Z,1.03
2023-02-26T12:08:38.442Z,1.07
2023-02-26T12:12:50.863Z,0.80
2023-02-26T12:16:14.809Z,0.83
2023-02-26T12:19:41.851Z,1.30
2023-02-26T12:23:00.593Z,0.90
2023-02-26T12:26:25.839Z,1.40
2023-02-26T12:30:01.263Z,1.27
2023-02-26T12:33:25.830Z,0.67
2023-02-26T12:36:57.670Z,0.80
2023-02-26T12:40:41.459Z,0.70
2023-02-26T12:43:52.988Z,0.50
2023-02-26T12:47:34.575Z,0.67
2023-02-26T12:51:03.751Z,0.73
2023-02-26T12:55:05.420Z,0.50
2023-02-26T12:58:48.809Z,0.47
2023-02-26T13:03:01.100Z,0.70
2023-02-26T13:07:05.433Z,0.50
2023-02-26T13:10:29.269Z,0.93
2023-02-26T13:13:58.944Z,0.80
2023-02-26T13:17:24.916Z,1.00
2023-02-26T13:20:37.604Z,0.90
2023-02-26T13:23:53.406Z,1.10
2023-02-26T13:27:05.185Z,1.13
2023-02-26T13:30:27.844Z,0.90
2023-02-26T13:33:42.383Z,0.80
2023-02-26T13:36:52.065Z,0.73
2023-02-26T13:40:31.167Z,0.70
2023-02-26T13:44:10.427Z,0.70
2023-02-26T13:47:42.629Z,0.63
2023-02-26T13:51:08.874Z,0.60
2023-02-26T13:54:46.089Z,0.70
2023-02-26T13:57:54.801Z,0.70
2023-02-26T14:01:11.726Z,0.70
2023-02-26T14:04:33.558Z,0.90
2023-02-26T14:07:56.317Z,0.80
2023-02-26T14:11:39.642Z,0.73
2023-02-26T14:15:30.527Z,0.70
2023-02-26T14:18:52.095Z,0.80
2023-02-26T14:22:20.032Z,0.90
2023-02-26T14:25:39.867Z,0.70
2023-02-26T14:29:10.375Z,0.80
2023-02-26T14:32:33.176Z,0.80
2023-02-26T14:35:52.482Z,1.20
2023-02-26T14:39:11.355Z,0.70
2023-02-26T14:42:33.749Z,0.50
2023-02-26T14:45:46.345Z,0.80
2023-02-26T14:48:56.662Z,0.83
2023-02-26T14:52:41.517Z,0.90
2023-02-26T14:56:08.391Z,0.50
2023-02-26T14:59:45.296Z,0.60
2023-02-26T15:03:37.542Z,0.43
2023-02-26T15:07:19.741Z,0.50
2023-02-26T15:10:53.085Z,0.60
2023-02-26T15:14:26.083Z,2.17
2023-02-26T15:17:57.698Z,1.10
2023-02-26T15:21:25.542Z,0.80
2023-02-26T15:24:35.728Z,0.70
2023-02-26T15:27:45.389Z,0.90
2023-02-26T15:31:03.000Z,0.60
2023-02-26T15:34:14.609Z,0.93
2023-02-26T15:37:28.537Z,2.00
2023-02-26T15:40:38.990Z,0.97
2023-02-26T15:43:53.918Z,1.00
2023-02-26T15:47:07.031Z,0.57
2023-02-26T15:50:19.521Z,0.97
2023-02-26T15:53:35.425Z,0.67
2023-02-26T15:56:45.166Z,0.97
2023-02-26T16:00:02.791Z,0.80
2023-02-26T16:03:28.642Z,0.60
2023-02-26T16:06:41.864Z,0.80
2023-02-26T16:09:56.400Z,0.70
2023-02-26T16:13:08.873Z,0.63
2023-02-26T16:16:23.052Z,1.43
2023-02-26T16:19:39.497Z,0.83
2023-02-26T16:22:51.383Z,1.50
2023-02-26T16:26:02.940Z,1.13
2023-02-26T16:29:19.593Z,0.77
2023-02-26T16:32:33.870Z,0.80
2023-02-26T16:35:48.897Z,1.73
2023-02-26T16:39:20.586Z,1.47
2023-02-26T16:42:46.692Z,1.07
2023-02-26T16:46:02.174Z,0.97
2023-02-26T16:49:24.950Z,1.50
2023-02-26T16:52:35.292Z,1.93
2023-02-26T16:55:51.089Z,1.40
2023-02-26T16:59:06.785Z,2.07
2023-02-26T17:02:19.904Z,1.57
2023-02-26T17:05:34.919Z,1.30
2023-02-26T17:08:52.240Z,1.27
2023-02-26T17:12:16.915Z,1.67
2023-02-26T17:15:32.077Z,1.87
2023-02-26T17:18:40.401Z,1.63
2023-02-26T17:21:57.768Z,1.63
2023-02-26T17:25:08.358Z,1.70
2023-02-26T17:28:23.184Z,2.03
2023-02-26T17:31:31.324Z,2.70
2023-02-26T17:34:39.564Z,1.93
2023-02-26T17:37:47.861Z,1.70
2023-02-26T17:40:58.344Z,1.73
2023-02-26T17:44:06.675Z,6.60
2023-02-26T17:47:18.240Z,5.87
2023-02-26T17:50:41.205Z,4.50
2023-02-26T17:53:50.560Z,3.37
2023-02-26T17:57:00.450Z,3.40
2023-02-26T18:00:14.902Z,3.30
2023-02-26T18:03:27.739Z,1.90
2023-02-26T18:06:38.794Z,2.03
2023-02-26T18:09:49.081Z,1.87
2023-02-26T18:12:59.548Z,1.70
2023-02-26T18:16:16.200Z,1.93
2023-02-26T18:19:24.421Z,1.70
2023-02-26T18:22:32.661Z,1.10
2023-02-26T18:25:42.635Z,1.90
2023-02-26T18:28:52.734Z,1.43
2023-02-26T18:35:45.939Z,1.30
2023-02-26T18:38:54.144Z,1.60
2023-02-26T18:42:02.471Z,1.43
2023-02-26T18:45:13.212Z,1.80
2023-02-26T18:48:22.397Z,1.30
2023-02-26T18:51:30.899Z,1.40
2023-02-26T18:54:40.135Z,1.10
2023-02-26T18:57:49.876Z,1.27
2023-02-26T19:01:04.798Z,1.20
2023-02-26T19:04:13.435Z,0.83
2023-02-26T19:07:21.780Z,1.20
2023-02-26T19:10:31.643Z,1.17
2023-02-26T19:13:43.155Z,1.17
2023-02-26T19:16:55.005Z,1.10
2023-02-26T19:20:04.159Z,1.10
2023-02-26T19:23:13.908Z,0.90
2023-02-26T19:26:22.775Z,0.87
2023-02-26T19:29:33.758Z,0.93
2023-02-26T19:32:43.382Z,0.90
2023-02-26T19:35:53.342Z,1.30
2023-02-26T19:39:02.477Z,1.30
2023-02-26T19:42:11.529Z,1.40
2023-02-26T19:45:20.206Z,1.50
2023-02-26T19:48:31.362Z,1.20
2023-02-26T19:51:40.589Z,1.60
2023-02-26T19:54:49.038Z,1.17
2023-02-26T19:57:59.398Z,1.20
2023-02-26T20:01:08.223Z,1.23
2023-02-26T20:04:18.879Z,1.40
2023-02-26T20:07:27.400Z,1.17
2023-02-26T20:10:35.558Z,1.43
2023-02-26T20:13:44.131Z,1.20
2023-02-26T20:16:52.346Z,1.60
2023-02-26T20:20:02.239Z,1.70
2023-02-26T20:23:11.726Z,1.40
2023-02-26T20:26:20.073Z,1.43
2023-02-26T20:29:28.707Z,1.10
2023-02-26T20:32:37.267Z,1.77
2023-02-26T20:35:47.389Z,1.90
2023-02-26T20:38:55.995Z,2.67
2023-02-26T20:42:05.232Z,3.20
2023-02-26T20:45:13.905Z,3.43
2023-02-26T20:48:22.600Z,3.30
2023-02-26T20:51:32.793Z,2.13
2023-02-26T20:54:41.884Z,2.50
2023-02-26T20:57:50.756Z,1.97
2023-02-26T21:00:59.517Z,2.03
2023-02-26T21:04:10.430Z,1.97
2023-02-26T21:07:22.857Z,1.90
2023-02-26T21:10:32.605Z,2.40
2023-02-26T21:13:41.307Z,2.20
2023-02-26T21:16:49.648Z,1.70
2023-02-26T21:19:58.367Z,1.67
2023-02-26T21:23:08.277Z,1.93
2023-02-26T21:26:16.758Z,1.70
2023-02-26T21:29:25.312Z,1.80
2023-02-26T21:32:34.232Z,1.97
2023-02-26T21:35:42.845Z,1.90
2023-02-26T21:38:52.446Z,2.00
2023-02-26T21:42:06.133Z,1.67
2023-02-26T21:45:14.611Z,1.93
2023-02-26T21:48:22.865Z,2.20
2023-02-26T21:51:31.293Z,1.83
2023-02-26T21:54:41.432Z,1.77
2023-02-26T21:57:50.036Z,2.40
2023-02-26T22:00:59.656Z,2.03
2023-02-26T22:04:08.443Z,1.60
2023-02-26T22:07:16.749Z,1.60
2023-02-26T22:10:26.616Z,2.03
2023-02-26T22:13:35.231Z,2.20
2023-02-26T22:16:43.783Z,2.17
2023-02-26T22:19:52.117Z,2.27
2023-02-26T22:23:00.751Z,2.20
2023-02-26T22:26:17.927Z,1.90
2023-02-26T22:29:26.280Z,2.20
2023-02-26T22:32:34.783Z,2.23
2023-02-26T22:35:44.253Z,2.00
2023-02-26T22:38:52.540Z,2.03
2023-02-26T22:42:02.120Z,2.10
2023-02-26T22:45:12.434Z,2.17
2023-02-26T22:48:21.025Z,1.93
2023-02-26T22:51:29.936Z,1.90
2023-02-26T22:54:39.030Z,2.20
2023-02-26T22:57:48.621Z,2.40
2023-02-26T23:01:01.802Z,2.27
2023-02-26T23:04:10.668Z,2.23
2023-02-26T23:07:19.453Z,2.60
2023-02-26T23:10:27.672Z,2.27
2023-02-26T23:13:38.097Z,2.33
2023-02-26T23:16:46.463Z,2.53
2023-02-26T23:19:55.151Z,2.70
2023-02-26T23:23:03.313Z,2.67
2023-02-26T23:26:11.841Z,2.63
2023-02-26T23:29:21.547Z,2.40
2023-02-26T23:32:29.683Z,2.63
2023-02-26T23:35:38.246Z,2.00
2023-02-26T23:38:46.470Z,3.03
2023-02-26T23:41:55.177Z,2.63
2023-02-26T23:45:05.370Z,1.70
2023-02-26T23:48:13.796Z,2.03
2023-02-26T23:51:22.045Z,2.20
2023-02-26T23:54:30.517Z,2.20
2023-02-26T23:57:39.158Z,1.77
